Terminal Aerodrome Forecast
Issued by NWS

Home | Current Version | Previous Version | Text Only | Print | Product List | Glossary On
Versions: 1 2 3 4 5 6 7 8 9 10 11 12 13 14 15 16
000
FTUS45 KRIW 211827 AAA
TAFCOD
TAF AMD
KCOD 211827Z 2118/2218 35009KT P6SM -RA SCT012 OVC022
     FM212200 36013G23KT 5SM -RA SCT012 BKN020
     FM221400 34011G21KT P6SM -RA OVC035
      AMD LTD TO CLD VIS AND WIND=

USA.gov is the U.S. government's official web portal to all federal, state and local government web resources and services.